sensor_id;sensor_type;location;lat;lon;timestamp;temperature;humidity
19000;DHT22;9633;50.980;13.850;2023-06-24T00:00:20;15.70;99.90
19000;DHT22;9633;50.980;13.850;2023-06-24T00:01:53;15.80;99.90
19000;DHT22;9633;50.980;13.850;2023-06-24T00:03:27;15.80;99.90
19000;DHT22;9633;50.980;13.850;2023-06-24T00:05:01;15.70;99.90
19000;DHT22;9633;50.980;13.850;2023-06-24T00:06:35;15.60;99.90
19000;DHT22;9633;50.980;13.850;2023-06-24T00:08:09;15.60;99.90
19000;DHT22;9633;50.980;13.850;2023-06-24T00:09:42;15.60;99.90
19000;DHT22;9633;50.980;13.850;2023-06-24T00:11:14;15.60;99.90
19000;DHT22;9633;50.980;13.850;2023-06-24T00:12:47;15.70;99.90
19000;DHT22;9633;50.980;13.850;2023-06-24T00:14:21;15.70;99.90
19000;DHT22;9633;50.980;13.850;2023-06-24T00:15:55;15.70;99.90
19000;DHT22;9633;50.980;13.850;2023-06-24T00:17:29;15.70;99.90
19000;DHT22;9633;50.980;13.850;2023-06-24T00:19:02;15.70;99.90
19000;DHT22;9633;50.980;13.850;2023-06-24T00:20:36;15.70;99.90
19000;DHT22;9633;50.980;13.850;2023-06-24T00:22:10;15.70;99.90
19000;DHT22;9633;50.980;13.850;2023-06-24T00:23:46;15.70;99.90
19000;DHT22;9633;50.980;13.850;2023-06-24T00:25:21;15.80;99.90
19000;DHT22;9633;50.980;13.850;2023-06-24T00:26:54;15.80;99.90
19000;DHT22;9633;50.980;13.850;2023-06-24T00:28:27;15.80;99.90
19000;DHT22;9633;50.980;13.850;2023-06-24T00:30:00;15.80;99.90
19000;DHT22;9633;50.980;13.850;2023-06-24T00:31:34;15.80;99.90
19000;DHT22;9633;50.980;13.850;2023-06-24T00:33:08;15.80;99.90
19000;DHT22;9633;50.980;13.850;2023-06-24T00:34:43;15.80;99.90
19000;DHT22;9633;50.980;13.850;2023-06-24T00:36:18;15.80;99.90
19000;DHT22;9633;50.980;13.850;2023-06-24T00:37:51;15.90;99.90
19000;DHT22;9633;50.980;13.850;2023-06-24T00:39:30;15.90;99.90
19000;DHT22;9633;50.980;13.850;2023-06-24T00:41:04;15.80;99.90
19000;DHT22;9633;50.980;13.850;2023-06-24T00:42:37;15.90;99.90
19000;DHT22;9633;50.980;13.850;2023-06-24T00:44:11;15.90;99.90
19000;DHT22;9633;50.980;13.850;2023-06-24T00:45:45;15.90;99.90
19000;DHT22;9633;50.980;13.850;2023-06-24T00:47:20;15.90;99.90
19000;DHT22;9633;50.980;13.850;2023-06-24T00:48:55;15.90;99.90
19000;DHT22;9633;50.980;13.850;2023-06-24T00:50:30;15.90;99.90
19000;DHT22;9633;50.980;13.850;2023-06-24T00:52:06;15.80;99.90
19000;DHT22;9633;50.980;13.850;2023-06-24T00:53:42;15.80;99.90
19000;DHT22;9633;50.980;13.850;2023-06-24T00:55:17;15.80;99.90
19000;DHT22;9633;50.980;13.850;2023-06-24T00:56:52;15.80;99.90
19000;DHT22;9633;50.980;13.850;2023-06-24T00:58:27;15.80;99.90
19000;DHT22;9633;50.980;13.850;2023-06-24T01:00:02;15.80;99.90
19000;DHT22;9633;50.980;13.850;2023-06-24T01:01:41;15.80;99.90
19000;DHT22;9633;50.980;13.850;2023-06-24T01:03:16;15.70;99.90
19000;DHT22;9633;50.980;13.850;2023-06-24T01:04:49;15.70;99.90
19000;DHT22;9633;50.980;13.850;2023-06-24T01:06:23;15.70;99.90
19000;DHT22;9633;50.980;13.850;2023-06-24T01:08:02;15.80;99.90
19000;DHT22;9633;50.980;13.850;2023-06-24T01:09:35;15.70;99.90
19000;DHT22;9633;50.980;13.850;2023-06-24T01:11:09;15.70;99.90
19000;DHT22;9633;50.980;13.850;2023-06-24T01:12:42;15.70;99.90
19000;DHT22;9633;50.980;13.850;2023-06-24T01:14:15;15.70;99.90
19000;DHT22;9633;50.980;13.850;2023-06-24T01:15:52;15.70;99.90
19000;DHT22;9633;50.980;13.850;2023-06-24T01:17:33;15.80;99.90
19000;DHT22;9633;50.980;13.850;2023-06-24T01:19:23;15.80;99.90
19000;DHT22;9633;50.980;13.850;2023-06-24T01:21:08;15.80;99.90
19000;DHT22;9633;50.980;13.850;2023-06-24T01:23:11;15.80;99.90
19000;DHT22;9633;50.980;13.850;2023-06-24T01:24:55;15.80;99.90
19000;DHT22;9633;50.980;13.850;2023-06-24T01:28:48;15.80;99.90
19000;DHT22;9633;50.980;13.850;2023-06-24T01:30:45;15.80;99.90
19000;DHT22;9633;50.980;13.850;2023-06-24T01:32:28;15.80;99.90
19000;DHT22;9633;50.980;13.850;2023-06-24T01:34:15;15.80;99.90
19000;DHT22;9633;50.980;13.850;2023-06-24T01:35:51;15.80;99.90
19000;DHT22;9633;50.980;13.850;2023-06-24T01:37:27;15.80;99.90
19000;DHT22;9633;50.980;13.850;2023-06-24T01:39:04;15.80;99.90
19000;DHT22;9633;50.980;13.850;2023-06-24T01:40:41;15.80;99.90
19000;DHT22;9633;50.980;13.850;2023-06-24T01:42:18;15.80;99.90
19000;DHT22;9633;50.980;13.850;2023-06-24T01:43:53;15.80;99.90
19000;DHT22;9633;50.980;13.850;2023-06-24T01:45:29;15.80;99.90
19000;DHT22;9633;50.980;13.850;2023-06-24T01:47:07;15.80;99.90
19000;DHT22;9633;50.980;13.850;2023-06-24T01:48:43;15.90;99.90
19000;DHT22;9633;50.980;13.850;2023-06-24T01:50:20;15.80;99.90
19000;DHT22;9633;50.980;13.850;2023-06-24T01:51:56;15.90;99.90
19000;DHT22;9633;50.980;13.850;2023-06-24T01:53:34;15.90;99.90
19000;DHT22;9633;50.980;13.850;2023-06-24T01:55:14;15.90;99.90
19000;DHT22;9633;50.980;13.850;2023-06-24T01:56:49;15.90;99.90
19000;DHT22;9633;50.980;13.850;2023-06-24T01:58:25;15.90;99.90
19000;DHT22;9633;50.980;13.850;2023-06-24T01:59:59;15.90;99.90
19000;DHT22;9633;50.980;13.850;2023-06-24T02:01:53;15.90;99.90
19000;DHT22;9633;50.980;13.850;2023-06-24T02:03:28;15.90;99.90
19000;DHT22;9633;50.980;13.850;2023-06-24T02:05:05;15.90;99.90
19000;DHT22;9633;50.980;13.850;2023-06-24T02:06:40;15.90;99.90
19000;DHT22;9633;50.980;13.850;2023-06-24T02:08:14;15.90;99.90
19000;DHT22;9633;50.980;13.850;2023-06-24T02:09:49;16.00;99.90
19000;DHT22;9633;50.980;13.850;2023-06-24T02:11:24;16.00;99.90
19000;DHT22;9633;50.980;13.850;2023-06-24T02:12:59;16.00;99.90
19000;DHT22;9633;50.980;13.850;2023-06-24T02:14:33;16.00;99.90
19000;DHT22;9633;50.980;13.850;2023-06-24T02:16:06;15.90;99.90
19000;DHT22;9633;50.980;13.850;2023-06-24T02:17:42;16.00;99.90
19000;DHT22;9633;50.980;13.850;2023-06-24T02:19:16;16.00;99.90
19000;DHT22;9633;50.980;13.850;2023-06-24T02:20:51;16.00;99.90
19000;DHT22;9633;50.980;13.850;2023-06-24T02:22:24;16.00;99.90
19000;DHT22;9633;50.980;13.850;2023-06-24T02:23:58;16.00;99.90
19000;DHT22;9633;50.980;13.850;2023-06-24T02:25:31;16.10;99.90
19000;DHT22;9633;50.980;13.850;2023-06-24T02:27:06;16.10;99.90
19000;DHT22;9633;50.980;13.850;2023-06-24T02:28:41;16.10;99.90
19000;DHT22;9633;50.980;13.850;2023-06-24T02:30:14;16.10;99.90
19000;DHT22;9633;50.980;13.850;2023-06-24T02:31:48;16.10;99.90
19000;DHT22;9633;50.980;13.850;2023-06-24T02:33:21;16.10;99.90
19000;DHT22;9633;50.980;13.850;2023-06-24T02:34:56;16.20;99.90
19000;DHT22;9633;50.980;13.850;2023-06-24T02:36:34;16.10;99.90
19000;DHT22;9633;50.980;13.850;2023-06-24T02:38:07;16.20;99.90
19000;DHT22;9633;50.980;13.850;2023-06-24T02:39:41;16.20;99.90
19000;DHT22;9633;50.980;13.850;2023-06-24T02:41:16;16.20;99.90
19000;DHT22;9633;50.980;13.850;2023-06-24T02:42:49;16.20;99.90
19000;DHT22;9633;50.980;13.850;2023-06-24T02:44:23;16.20;99.90
19000;DHT22;9633;50.980;13.850;2023-06-24T02:45:57;16.30;99.90
19000;DHT22;9633;50.980;13.850;2023-06-24T02:47:31;16.20;99.90
19000;DHT22;9633;50.980;13.850;2023-06-24T02:49:05;16.30;99.90
19000;DHT22;9633;50.980;13.850;2023-06-24T02:50:38;16.30;99.90
19000;DHT22;9633;50.980;13.850;2023-06-24T02:52:17;16.40;99.90
19000;DHT22;9633;50.980;13.850;2023-06-24T02:53:50;16.40;99.90
19000;DHT22;9633;50.980;13.850;2023-06-24T02:55:30;16.40;99.90
19000;DHT22;9633;50.980;13.850;2023-06-24T02:57:08;16.50;99.90
19000;DHT22;9633;50.980;13.850;2023-06-24T02:59:07;16.40;99.90
19000;DHT22;9633;50.980;13.850;2023-06-24T03:00:41;16.40;99.90
19000;DHT22;9633;50.980;13.850;2023-06-24T03:02:15;16.50;99.90
19000;DHT22;9633;50.980;13.850;2023-06-24T03:03:49;16.40;99.90
19000;DHT22;9633;50.980;13.850;2023-06-24T03:05:22;16.40;99.90
19000;DHT22;9633;50.980;13.850;2023-06-24T03:07:00;16.40;99.90
19000;DHT22;9633;50.980;13.850;2023-06-24T03:08:36;16.40;99.90
19000;DHT22;9633;50.980;13.850;2023-06-24T03:10:10;16.40;99.90
19000;DHT22;9633;50.980;13.850;2023-06-24T03:11:44;16.40;99.90
19000;DHT22;9633;50.980;13.850;2023-06-24T03:13:25;16.40;99.90
19000;DHT22;9633;50.980;13.850;2023-06-24T03:15:18;16.50;99.90
19000;DHT22;9633;50.980;13.850;2023-06-24T03:16:52;16.40;99.90
19000;DHT22;9633;50.980;13.850;2023-06-24T03:18:27;16.40;99.90
19000;DHT22;9633;50.980;13.850;2023-06-24T03:20:00;16.40;99.90
19000;DHT22;9633;50.980;13.850;2023-06-24T03:21:36;16.50;99.90
19000;DHT22;9633;50.980;13.850;2023-06-24T03:23:13;16.50;99.90
19000;DHT22;9633;50.980;13.850;2023-06-24T03:24:46;16.50;99.90
19000;DHT22;9633;50.980;13.850;2023-06-24T03:26:20;16.50;99.90
19000;DHT22;9633;50.980;13.850;2023-06-24T03:27:53;16.50;99.90
19000;DHT22;9633;50.980;13.850;2023-06-24T03:29:26;16.50;99.90
19000;DHT22;9633;50.980;13.850;2023-06-24T03:31:15;16.50;99.90
19000;DHT22;9633;50.980;13.850;2023-06-24T03:32:49;16.50;99.90
19000;DHT22;9633;50.980;13.850;2023-06-24T03:34:23;16.50;99.90
19000;DHT22;9633;50.980;13.850;2023-06-24T03:35:57;16.50;99.90
19000;DHT22;9633;50.980;13.850;2023-06-24T03:37:34;16.50;99.90
19000;DHT22;9633;50.980;13.850;2023-06-24T03:39:08;16.50;99.90
19000;DHT22;9633;50.980;13.850;2023-06-24T03:40:42;16.50;99.90
19000;DHT22;9633;50.980;13.850;2023-06-24T03:42:16;16.50;99.90
19000;DHT22;9633;50.980;13.850;2023-06-24T03:43:50;16.50;99.90
19000;DHT22;9633;50.980;13.850;2023-06-24T03:45:24;16.50;99.90
19000;DHT22;9633;50.980;13.850;2023-06-24T03:46:58;16.50;99.90
19000;DHT22;9633;50.980;13.850;2023-06-24T03:48:31;16.60;99.90
19000;DHT22;9633;50.980;13.850;2023-06-24T03:50:05;16.60;99.90
19000;DHT22;9633;50.980;13.850;2023-06-24T03:51:39;16.60;99.90
19000;DHT22;9633;50.980;13.850;2023-06-24T03:53:13;16.60;99.90
19000;DHT22;9633;50.980;13.850;2023-06-24T03:54:46;16.60;99.90
19000;DHT22;9633;50.980;13.850;2023-06-24T03:56:21;16.60;99.90
19000;DHT22;9633;50.980;13.850;2023-06-24T03:57:54;16.60;99.90
19000;DHT22;9633;50.980;13.850;2023-06-24T03:59:27;16.60;99.90
19000;DHT22;9633;50.980;13.850;2023-06-24T04:01:02;16.60;99.90
19000;DHT22;9633;50.980;13.850;2023-06-24T04:02:35;16.50;99.90
19000;DHT22;9633;50.980;13.850;2023-06-24T04:04:08;16.60;99.90
19000;DHT22;9633;50.980;13.850;2023-06-24T04:05:41;16.60;99.90
19000;DHT22;9633;50.980;13.850;2023-06-24T04:07:14;16.50;99.90
19000;DHT22;9633;50.980;13.850;2023-06-24T04:09:01;16.40;99.90
19000;DHT22;9633;50.980;13.850;2023-06-24T04:10:34;16.40;99.90
19000;DHT22;9633;50.980;13.850;2023-06-24T04:12:10;16.30;99.90
19000;DHT22;9633;50.980;13.850;2023-06-24T04:13:45;16.30;99.90
19000;DHT22;9633;50.980;13.850;2023-06-24T04:15:20;16.20;99.90
19000;DHT22;9633;50.980;13.850;2023-06-24T04:16:54;16.20;99.90
19000;DHT22;9633;50.980;13.850;2023-06-24T04:18:27;16.20;99.90
19000;DHT22;9633;50.980;13.850;2023-06-24T04:20:01;16.30;99.90
19000;DHT22;9633;50.980;13.850;2023-06-24T04:21:35;16.20;99.90
19000;DHT22;9633;50.980;13.850;2023-06-24T04:23:09;16.20;99.90
19000;DHT22;9633;50.980;13.850;2023-06-24T04:24:42;16.30;99.90
19000;DHT22;9633;50.980;13.850;2023-06-24T04:26:15;16.20;99.90
19000;DHT22;9633;50.980;13.850;2023-06-24T04:27:50;16.20;99.90
19000;DHT22;9633;50.980;13.850;2023-06-24T04:29:23;16.20;99.90
19000;DHT22;9633;50.980;13.850;2023-06-24T04:30:56;16.20;99.90
19000;DHT22;9633;50.980;13.850;2023-06-24T04:32:30;16.20;99.90
19000;DHT22;9633;50.980;13.850;2023-06-24T04:34:04;16.20;99.90
19000;DHT22;9633;50.980;13.850;2023-06-24T04:35:37;16.20;99.90
19000;DHT22;9633;50.980;13.850;2023-06-24T04:37:10;16.20;99.90
19000;DHT22;9633;50.980;13.850;2023-06-24T04:38:44;16.20;99.90
19000;DHT22;9633;50.980;13.850;2023-06-24T04:40:17;16.20;99.90
19000;DHT22;9633;50.980;13.850;2023-06-24T04:41:51;16.30;99.90
19000;DHT22;9633;50.980;13.850;2023-06-24T04:43:25;16.40;99.90
19000;DHT22;9633;50.980;13.850;2023-06-24T04:44:59;16.50;99.90
19000;DHT22;9633;50.980;13.850;2023-06-24T04:46:32;16.60;99.90
19000;DHT22;9633;50.980;13.850;2023-06-24T04:48:06;16.60;99.90
19000;DHT22;9633;50.980;13.850;2023-06-24T04:49:39;16.60;99.90
19000;DHT22;9633;50.980;13.850;2023-06-24T04:51:13;16.60;99.90
19000;DHT22;9633;50.980;13.850;2023-06-24T04:52:45;16.70;99.90
19000;DHT22;9633;50.980;13.850;2023-06-24T04:54:18;16.80;99.90
19000;DHT22;9633;50.980;13.850;2023-06-24T04:55:51;16.90;99.90
19000;DHT22;9633;50.980;13.850;2023-06-24T04:57:27;17.00;99.90
19000;DHT22;9633;50.980;13.850;2023-06-24T04:59:01;17.00;99.90
19000;DHT22;9633;50.980;13.850;2023-06-24T05:00:35;17.10;99.90
19000;DHT22;9633;50.980;13.850;2023-06-24T05:02:08;17.10;99.90
19000;DHT22;9633;50.980;13.850;2023-06-24T05:03:41;17.10;99.90
19000;DHT22;9633;50.980;13.850;2023-06-24T05:05:15;17.10;99.90
19000;DHT22;9633;50.980;13.850;2023-06-24T05:06:48;17.10;99.90
19000;DHT22;9633;50.980;13.850;2023-06-24T05:08:21;17.00;99.90
19000;DHT22;9633;50.980;13.850;2023-06-24T05:09:54;16.90;99.90
19000;DHT22;9633;50.980;13.850;2023-06-24T05:11:28;16.90;99.90
19000;DHT22;9633;50.980;13.850;2023-06-24T05:13:01;16.90;99.90
19000;DHT22;9633;50.980;13.850;2023-06-24T05:14:36;16.80;99.90
19000;DHT22;9633;50.980;13.850;2023-06-24T05:16:08;16.90;99.90
19000;DHT22;9633;50.980;13.850;2023-06-24T05:17:42;16.90;99.90
19000;DHT22;9633;50.980;13.850;2023-06-24T05:19:16;16.90;99.90
19000;DHT22;9633;50.980;13.850;2023-06-24T05:20:49;16.90;99.90
19000;DHT22;9633;50.980;13.850;2023-06-24T05:22:23;16.90;99.90
19000;DHT22;9633;50.980;13.850;2023-06-24T05:23:56;16.90;99.90
19000;DHT22;9633;50.980;13.850;2023-06-24T05:25:29;16.90;99.90
19000;DHT22;9633;50.980;13.850;2023-06-24T05:27:04;16.90;99.90
19000;DHT22;9633;50.980;13.850;2023-06-24T05:28:38;16.90;99.90
19000;DHT22;9633;50.980;13.850;2023-06-24T05:30:13;17.00;99.90
19000;DHT22;9633;50.980;13.850;2023-06-24T05:31:46;17.00;99.90
19000;DHT22;9633;50.980;13.850;2023-06-24T05:33:18;17.10;99.90
19000;DHT22;9633;50.980;13.850;2023-06-24T05:34:52;17.10;99.90
19000;DHT22;9633;50.980;13.850;2023-06-24T05:36:25;17.10;99.90
19000;DHT22;9633;50.980;13.850;2023-06-24T05:37:58;17.10;99.90
19000;DHT22;9633;50.980;13.850;2023-06-24T05:39:31;17.10;99.90
19000;DHT22;9633;50.980;13.850;2023-06-24T05:41:05;17.20;99.90
19000;DHT22;9633;50.980;13.850;2023-06-24T05:42:38;17.20;99.90
19000;DHT22;9633;50.980;13.850;2023-06-24T05:44:11;17.20;99.90
19000;DHT22;9633;50.980;13.850;2023-06-24T05:45:45;17.30;99.90
19000;DHT22;9633;50.980;13.850;2023-06-24T05:47:19;17.30;99.90
19000;DHT22;9633;50.980;13.850;2023-06-24T05:48:52;17.30;99.90
19000;DHT22;9633;50.980;13.850;2023-06-24T05:50:25;17.30;99.90
19000;DHT22;9633;50.980;13.850;2023-06-24T05:51:59;17.40;99.90
19000;DHT22;9633;50.980;13.850;2023-06-24T05:53:32;17.30;99.90
19000;DHT22;9633;50.980;13.850;2023-06-24T05:55:05;17.20;99.90
19000;DHT22;9633;50.980;13.850;2023-06-24T05:56:39;17.20;99.90
19000;DHT22;9633;50.980;13.850;2023-06-24T05:58:12;17.10;99.90
19000;DHT22;9633;50.980;13.850;2023-06-24T05:59:45;17.20;99.90
19000;DHT22;9633;50.980;13.850;2023-06-24T06:01:20;17.20;99.90
19000;DHT22;9633;50.980;13.850;2023-06-24T06:02:53;17.30;99.90
19000;DHT22;9633;50.980;13.850;2023-06-24T06:04:26;17.30;99.90
19000;DHT22;9633;50.980;13.850;2023-06-24T06:05:59;17.40;99.90
19000;DHT22;9633;50.980;13.850;2023-06-24T06:07:32;17.40;99.90
19000;DHT22;9633;50.980;13.850;2023-06-24T06:09:06;17.40;99.90
19000;DHT22;9633;50.980;13.850;2023-06-24T06:10:39;17.40;99.90
19000;DHT22;9633;50.980;13.850;2023-06-24T06:12:13;17.30;99.90
19000;DHT22;9633;50.980;13.850;2023-06-24T06:13:46;17.20;99.90
19000;DHT22;9633;50.980;13.850;2023-06-24T06:15:19;17.20;99.90
19000;DHT22;9633;50.980;13.850;2023-06-24T06:16:53;17.30;99.90
19000;DHT22;9633;50.980;13.850;2023-06-24T06:18:26;17.20;99.90
19000;DHT22;9633;50.980;13.850;2023-06-24T06:19:59;17.30;99.90
19000;DHT22;9633;50.980;13.850;2023-06-24T06:21:33;17.40;99.90
19000;DHT22;9633;50.980;13.850;2023-06-24T06:23:07;17.20;99.90
19000;DHT22;9633;50.980;13.850;2023-06-24T06:24:40;17.20;99.90
19000;DHT22;9633;50.980;13.850;2023-06-24T06:26:13;17.20;99.90
19000;DHT22;9633;50.980;13.850;2023-06-24T06:27:46;17.20;99.90
19000;DHT22;9633;50.980;13.850;2023-06-24T06:29:18;17.10;99.90
19000;DHT22;9633;50.980;13.850;2023-06-24T06:30:51;17.20;99.90
19000;DHT22;9633;50.980;13.850;2023-06-24T06:32:26;17.20;99.90
19000;DHT22;9633;50.980;13.850;2023-06-24T06:34:03;17.00;99.90
19000;DHT22;9633;50.980;13.850;2023-06-24T06:35:37;17.00;99.90
19000;DHT22;9633;50.980;13.850;2023-06-24T06:37:10;17.10;99.90
19000;DHT22;9633;50.980;13.850;2023-06-24T06:38:43;17.20;99.90
19000;DHT22;9633;50.980;13.850;2023-06-24T06:40:16;17.20;99.90
19000;DHT22;9633;50.980;13.850;2023-06-24T06:41:49;17.20;99.90
19000;DHT22;9633;50.980;13.850;2023-06-24T06:43:23;17.10;99.90
19000;DHT22;9633;50.980;13.850;2023-06-24T06:44:56;17.10;99.90
19000;DHT22;9633;50.980;13.850;2023-06-24T06:46:29;17.10;99.90
19000;DHT22;9633;50.980;13.850;2023-06-24T06:48:04;17.10;99.90
19000;DHT22;9633;50.980;13.850;2023-06-24T06:49:39;17.30;99.90
19000;DHT22;9633;50.980;13.850;2023-06-24T06:51:12;17.20;99.90
19000;DHT22;9633;50.980;13.850;2023-06-24T06:52:45;17.10;99.90
19000;DHT22;9633;50.980;13.850;2023-06-24T06:54:19;17.10;99.90
19000;DHT22;9633;50.980;13.850;2023-06-24T06:55:52;17.00;99.90
19000;DHT22;9633;50.980;13.850;2023-06-24T06:57:25;16.80;99.90
19000;DHT22;9633;50.980;13.850;2023-06-24T06:58:59;16.70;99.90
19000;DHT22;9633;50.980;13.850;2023-06-24T07:00:32;16.80;99.90
19000;DHT22;9633;50.980;13.850;2023-06-24T07:02:06;16.70;99.90
19000;DHT22;9633;50.980;13.850;2023-06-24T07:03:41;16.80;99.90
19000;DHT22;9633;50.980;13.850;2023-06-24T07:05:14;16.70;99.90
19000;DHT22;9633;50.980;13.850;2023-06-24T07:06:47;16.70;99.90
19000;DHT22;9633;50.980;13.850;2023-06-24T07:08:20;16.60;99.90
19000;DHT22;9633;50.980;13.850;2023-06-24T07:09:53;16.60;99.90
19000;DHT22;9633;50.980;13.850;2023-06-24T07:11:25;16.70;99.90
19000;DHT22;9633;50.980;13.850;2023-06-24T07:12:58;16.80;99.90
19000;DHT22;9633;50.980;13.850;2023-06-24T07:14:31;16.90;99.90
19000;DHT22;9633;50.980;13.850;2023-06-24T07:16:05;16.90;99.90
19000;DHT22;9633;50.980;13.850;2023-06-24T07:17:38;16.90;99.90
19000;DHT22;9633;50.980;13.850;2023-06-24T07:19:12;16.90;99.90
19000;DHT22;9633;50.980;13.850;2023-06-24T07:20:46;16.90;99.90
19000;DHT22;9633;50.980;13.850;2023-06-24T07:22:19;17.00;99.90
19000;DHT22;9633;50.980;13.850;2023-06-24T07:23:52;17.00;99.90
19000;DHT22;9633;50.980;13.850;2023-06-24T07:25:25;17.30;99.90
19000;DHT22;9633;50.980;13.850;2023-06-24T07:27:00;17.30;99.90
19000;DHT22;9633;50.980;13.850;2023-06-24T07:28:33;17.40;99.90
19000;DHT22;9633;50.980;13.850;2023-06-24T07:30:07;17.40;99.90
19000;DHT22;9633;50.980;13.850;2023-06-24T07:31:41;17.30;99.90
19000;DHT22;9633;50.980;13.850;2023-06-24T07:33:15;17.10;99.90
19000;DHT22;9633;50.980;13.850;2023-06-24T07:34:50;16.90;99.90
19000;DHT22;9633;50.980;13.850;2023-06-24T07:36:23;16.80;99.90
19000;DHT22;9633;50.980;13.850;2023-06-24T07:37:56;17.00;99.90
19000;DHT22;9633;50.980;13.850;2023-06-24T07:39:29;17.00;99.90
19000;DHT22;9633;50.980;13.850;2023-06-24T07:41:02;17.10;99.90
19000;DHT22;9633;50.980;13.850;2023-06-24T07:42:36;17.20;99.90
19000;DHT22;9633;50.980;13.850;2023-06-24T07:44:09;17.10;99.90
19000;DHT22;9633;50.980;13.850;2023-06-24T07:45:43;17.10;99.90
19000;DHT22;9633;50.980;13.850;2023-06-24T07:47:17;17.30;99.90
19000;DHT22;9633;50.980;13.850;2023-06-24T07:48:50;17.40;99.90
19000;DHT22;9633;50.980;13.850;2023-06-24T07:50:25;17.60;99.90
19000;DHT22;9633;50.980;13.850;2023-06-24T07:51:58;17.80;99.90
19000;DHT22;9633;50.980;13.850;2023-06-24T07:53:31;18.00;99.90
19000;DHT22;9633;50.980;13.850;2023-06-24T07:55:05;17.90;99.90
19000;DHT22;9633;50.980;13.850;2023-06-24T07:56:38;18.10;99.90
19000;DHT22;9633;50.980;13.850;2023-06-24T07:58:12;18.20;99.90
19000;DHT22;9633;50.980;13.850;2023-06-24T07:59:45;17.90;99.90
19000;DHT22;9633;50.980;13.850;2023-06-24T08:01:18;17.90;99.90
19000;DHT22;9633;50.980;13.850;2023-06-24T08:02:51;17.80;99.90
19000;DHT22;9633;50.980;13.850;2023-06-24T08:04:25;18.00;99.90
19000;DHT22;9633;50.980;13.850;2023-06-24T08:06:00;18.30;99.90
19000;DHT22;9633;50.980;13.850;2023-06-24T08:07:33;18.50;99.90
19000;DHT22;9633;50.980;13.850;2023-06-24T08:09:06;18.80;99.90
19000;DHT22;9633;50.980;13.850;2023-06-24T08:10:39;19.10;99.90
19000;DHT22;9633;50.980;13.850;2023-06-24T08:12:13;19.60;99.90
19000;DHT22;9633;50.980;13.850;2023-06-24T08:13:46;19.60;99.90
19000;DHT22;9633;50.980;13.850;2023-06-24T08:15:19;20.10;99.90
19000;DHT22;9633;50.980;13.850;2023-06-24T08:16:53;20.20;99.90
19000;DHT22;9633;50.980;13.850;2023-06-24T08:18:26;19.90;99.90
19000;DHT22;9633;50.980;13.850;2023-06-24T08:20:00;19.40;99.90
19000;DHT22;9633;50.980;13.850;2023-06-24T08:21:35;19.20;99.90
19000;DHT22;9633;50.980;13.850;2023-06-24T08:23:09;18.60;99.90
19000;DHT22;9633;50.980;13.850;2023-06-24T08:24:42;18.40;99.90
19000;DHT22;9633;50.980;13.850;2023-06-24T08:26:16;18.40;99.90
19000;DHT22;9633;50.980;13.850;2023-06-24T08:27:49;18.50;99.90
19000;DHT22;9633;50.980;13.850;2023-06-24T08:29:22;18.70;99.90
19000;DHT22;9633;50.980;13.850;2023-06-24T08:30:54;18.70;99.90
19000;DHT22;9633;50.980;13.850;2023-06-24T08:32:27;18.70;99.90
19000;DHT22;9633;50.980;13.850;2023-06-24T08:34:01;18.90;99.90
19000;DHT22;9633;50.980;13.850;2023-06-24T08:35:35;19.20;99.90
19000;DHT22;9633;50.980;13.850;2023-06-24T08:37:09;19.50;99.90
19000;DHT22;9633;50.980;13.850;2023-06-24T08:38:43;19.80;99.90
19000;DHT22;9633;50.980;13.850;2023-06-24T08:40:17;19.80;99.90
19000;DHT22;9633;50.980;13.850;2023-06-24T08:41:51;19.60;99.90
19000;DHT22;9633;50.980;13.850;2023-06-24T08:43:25;19.60;99.90
19000;DHT22;9633;50.980;13.850;2023-06-24T08:44:58;19.80;99.90
19000;DHT22;9633;50.980;13.850;2023-06-24T08:46:31;19.90;99.90
19000;DHT22;9633;50.980;13.850;2023-06-24T08:48:08;19.50;99.90
19000;DHT22;9633;50.980;13.850;2023-06-24T08:49:46;19.50;99.90
19000;DHT22;9633;50.980;13.850;2023-06-24T08:51:23;19.50;99.90
19000;DHT22;9633;50.980;13.850;2023-06-24T08:53:03;19.60;99.90
19000;DHT22;9633;50.980;13.850;2023-06-24T08:54:40;19.90;99.90
19000;DHT22;9633;50.980;13.850;2023-06-24T08:56:15;20.80;99.90
19000;DHT22;9633;50.980;13.850;2023-06-24T08:57:49;21.60;99.90
19000;DHT22;9633;50.980;13.850;2023-06-24T08:59:23;21.70;99.90
19000;DHT22;9633;50.980;13.850;2023-06-24T09:00:56;22.20;99.90
19000;DHT22;9633;50.980;13.850;2023-06-24T09:02:30;23.00;99.90
19000;DHT22;9633;50.980;13.850;2023-06-24T09:04:05;23.20;93.90
19000;DHT22;9633;50.980;13.850;2023-06-24T09:05:38;22.20;99.90
19000;DHT22;9633;50.980;13.850;2023-06-24T09:07:11;22.00;99.90
19000;DHT22;9633;50.980;13.850;2023-06-24T09:08:53;21.40;99.90
19000;DHT22;9633;50.980;13.850;2023-06-24T09:10:31;21.00;99.90
19000;DHT22;9633;50.980;13.850;2023-06-24T09:12:10;20.30;99.90
19000;DHT22;9633;50.980;13.850;2023-06-24T09:13:47;19.80;99.90
19000;DHT22;9633;50.980;13.850;2023-06-24T09:15:20;20.00;99.90
19000;DHT22;9633;50.980;13.850;2023-06-24T09:16:54;21.00;99.90
19000;DHT22;9633;50.980;13.850;2023-06-24T09:18:31;22.10;93.50
19000;DHT22;9633;50.980;13.850;2023-06-24T09:20:05;22.00;19.10
19000;DHT22;9633;50.980;13.850;2023-06-24T09:21:38;21.30;94.20
19000;DHT22;9633;50.980;13.850;2023-06-24T09:23:11;21.50;91.80
19000;DHT22;9633;50.980;13.850;2023-06-24T09:24:47;21.50;99.90
19000;DHT22;9633;50.980;13.850;2023-06-24T09:26:23;21.30;99.90
19000;DHT22;9633;50.980;13.850;2023-06-24T09:27:59;21.90;81.60
19000;DHT22;9633;50.980;13.850;2023-06-24T09:29:33;21.70;40.50
19000;DHT22;9633;50.980;13.850;2023-06-24T09:31:07;21.30;52.10
19000;DHT22;9633;50.980;13.850;2023-06-24T09:32:43;21.10;99.90
19000;DHT22;9633;50.980;13.850;2023-06-24T09:34:16;21.80;10.50
19000;DHT22;9633;50.980;13.850;2023-06-24T09:35:50;22.60;1.00
19000;DHT22;9633;50.980;13.850;2023-06-24T09:37:24;23.80;1.00
19000;DHT22;9633;50.980;13.850;2023-06-24T09:39:05;23.60;1.00
19000;DHT22;9633;50.980;13.850;2023-06-24T09:41:02;22.60;1.00
19000;DHT22;9633;50.980;13.850;2023-06-24T09:42:52;23.30;1.00
19000;DHT22;9633;50.980;13.850;2023-06-24T09:44:26;23.30;1.00
19000;DHT22;9633;50.980;13.850;2023-06-24T09:46:01;22.50;1.00
19000;DHT22;9633;50.980;13.850;2023-06-24T09:47:34;21.70;1.00
19000;DHT22;9633;50.980;13.850;2023-06-24T09:49:07;21.90;1.00
19000;DHT22;9633;50.980;13.850;2023-06-24T09:50:41;22.60;1.00
19000;DHT22;9633;50.980;13.850;2023-06-24T09:52:14;23.50;1.00
19000;DHT22;9633;50.980;13.850;2023-06-24T09:53:49;23.10;57.70
19000;DHT22;9633;50.980;13.850;2023-06-24T09:55:23;24.00;33.10
19000;DHT22;9633;50.980;13.850;2023-06-24T09:57:01;24.00;44.50
19000;DHT22;9633;50.980;13.850;2023-06-24T09:58:36;24.30;48.80
19000;DHT22;9633;50.980;13.850;2023-06-24T10:00:10;24.20;88.70
19000;DHT22;9633;50.980;13.850;2023-06-24T10:01:45;23.20;78.40